sensor_id;sensor_type;location;lat;lon;timestamp;P1;durP1;ratioP1;P2;durP2;ratioP2
37885;SDS011;23726;52.520;13.434;2022-09-09T00:01:00;6.40;;;5.70;;
37885;SDS011;23726;52.520;13.434;2022-09-09T00:03:47;6.88;;;5.65;;
37885;SDS011;23726;52.520;13.434;2022-09-09T00:06:26;7.05;;;5.57;;
37885;SDS011;23726;52.520;13.434;2022-09-09T00:17:35;7.60;;;5.93;;
37885;SDS011;23726;52.520;13.434;2022-09-09T00:25:49;6.35;;;5.38;;
37885;SDS011;23726;52.520;13.434;2022-09-09T00:28:22;7.57;;;5.60;;
37885;SDS011;23726;52.520;13.434;2022-09-09T00:30:53;5.85;;;5.25;;
37885;SDS011;23726;52.520;13.434;2022-09-09T00:33:20;5.80;;;5.22;;
37885;SDS011;23726;52.520;13.434;2022-09-09T00:35:51;6.15;;;5.35;;
37885;SDS011;23726;52.520;13.434;2022-09-09T00:43:35;6.25;;;5.05;;
37885;SDS011;23726;52.520;13.434;2022-09-09T00:54:37;7.43;;;5.30;;
37885;SDS011;23726;52.520;13.434;2022-09-09T00:57:37;6.03;;;5.03;;
37885;SDS011;23726;52.520;13.434;2022-09-09T01:00:21;6.13;;;5.30;;
37885;SDS011;23726;52.520;13.434;2022-09-09T01:03:28;6.05;;;4.60;;
37885;SDS011;23726;52.520;13.434;2022-09-09T01:12:12;5.75;;;4.50;;
37885;SDS011;23726;52.520;13.434;2022-09-09T01:17:58;5.00;;;4.60;;
37885;SDS011;23726;52.520;13.434;2022-09-09T01:23:19;5.18;;;4.68;;
37885;SDS011;23726;52.520;13.434;2022-09-09T01:26:21;5.60;;;5.05;;
37885;SDS011;23726;52.520;13.434;2022-09-09T01:29:00;6.15;;;4.50;;
37885;SDS011;23726;52.520;13.434;2022-09-09T01:31:27;5.07;;;4.57;;
37885;SDS011;23726;52.520;13.434;2022-09-09T01:33:56;4.97;;;4.47;;
37885;SDS011;23726;52.520;13.434;2022-09-09T01:38:54;5.53;;;4.97;;
37885;SDS011;23726;52.520;13.434;2022-09-09T01:41:19;5.38;;;4.70;;
37885;SDS011;23726;52.520;13.434;2022-09-09T01:43:45;6.28;;;5.05;;
37885;SDS011;23726;52.520;13.434;2022-09-09T01:46:11;5.53;;;4.32;;
37885;SDS011;23726;52.520;13.434;2022-09-09T01:48:38;4.95;;;4.30;;
37885;SDS011;23726;52.520;13.434;2022-09-09T01:51:05;5.28;;;4.78;;
37885;SDS011;23726;52.520;13.434;2022-09-09T01:53:33;4.75;;;4.35;;
37885;SDS011;23726;52.520;13.434;2022-09-09T01:56:18;4.78;;;4.28;;
37885;SDS011;23726;52.520;13.434;2022-09-09T02:10:20;5.07;;;4.55;;
37885;SDS011;23726;52.520;13.434;2022-09-09T02:12:54;6.10;;;4.18;;
37885;SDS011;23726;52.520;13.434;2022-09-09T02:15:30;4.80;;;4.40;;
37885;SDS011;23726;52.520;13.434;2022-09-09T02:18:22;4.43;;;3.83;;
37885;SDS011;23726;52.520;13.434;2022-09-09T02:20:53;5.30;;;4.25;;
37885;SDS011;23726;52.520;13.434;2022-09-09T02:23:20;4.30;;;3.90;;
37885;SDS011;23726;52.520;13.434;2022-09-09T02:25:46;4.50;;;4.10;;
37885;SDS011;23726;52.520;13.434;2022-09-09T02:28:12;4.28;;;3.80;;
37885;SDS011;23726;52.520;13.434;2022-09-09T02:30:40;4.88;;;4.10;;
37885;SDS011;23726;52.520;13.434;2022-09-09T02:33:11;4.78;;;4.10;;
37885;SDS011;23726;52.520;13.434;2022-09-09T02:35:38;4.65;;;4.20;;
37885;SDS011;23726;52.520;13.434;2022-09-09T02:38:08;4.22;;;3.83;;
37885;SDS011;23726;52.520;13.434;2022-09-09T02:40:37;4.13;;;3.73;;
37885;SDS011;23726;52.520;13.434;2022-09-09T02:43:02;4.25;;;3.85;;
37885;SDS011;23726;52.520;13.434;2022-09-09T02:45:34;4.30;;;3.90;;
37885;SDS011;23726;52.520;13.434;2022-09-09T02:51:35;4.85;;;3.80;;
37885;SDS011;23726;52.520;13.434;2022-09-09T02:54:10;3.85;;;3.55;;
37885;SDS011;23726;52.520;13.434;2022-09-09T02:56:59;4.15;;;3.75;;
37885;SDS011;23726;52.520;13.434;2022-09-09T02:59:36;4.30;;;3.90;;
37885;SDS011;23726;52.520;13.434;2022-09-09T03:02:02;3.90;;;3.60;;
37885;SDS011;23726;52.520;13.434;2022-09-09T03:04:27;3.95;;;3.65;;
37885;SDS011;23726;52.520;13.434;2022-09-09T03:06:56;3.92;;;3.40;;
37885;SDS011;23726;52.520;13.434;2022-09-09T03:09:22;4.03;;;3.63;;
37885;SDS011;23726;52.520;13.434;2022-09-09T03:11:47;4.07;;;3.67;;
37885;SDS011;23726;52.520;13.434;2022-09-09T03:14:14;4.20;;;3.80;;
37885;SDS011;23726;52.520;13.434;2022-09-09T03:16:40;5.18;;;3.85;;
37885;SDS011;23726;52.520;13.434;2022-09-09T03:19:08;3.65;;;3.35;;
37885;SDS011;23726;52.520;13.434;2022-09-09T03:21:34;4.85;;;3.88;;
37885;SDS011;23726;52.520;13.434;2022-09-09T03:24:00;4.05;;;3.75;;
37885;SDS011;23726;52.520;13.434;2022-09-09T03:26:28;4.40;;;3.55;;
37885;SDS011;23726;52.520;13.434;2022-09-09T03:28:54;3.95;;;3.53;;
37885;SDS011;23726;52.520;13.434;2022-09-09T03:31:22;3.65;;;3.35;;
37885;SDS011;23726;52.520;13.434;2022-09-09T03:33:47;3.80;;;3.50;;
37885;SDS011;23726;52.520;13.434;2022-09-09T03:36:15;3.97;;;3.53;;
37885;SDS011;23726;52.520;13.434;2022-09-09T03:38:41;4.28;;;3.53;;
37885;SDS011;23726;52.520;13.434;2022-09-09T03:41:06;3.70;;;3.40;;
37885;SDS011;23726;52.520;13.434;2022-09-09T03:43:32;4.72;;;3.45;;
37885;SDS011;23726;52.520;13.434;2022-09-09T03:45:59;3.42;;;3.13;;
37885;SDS011;23726;52.520;13.434;2022-09-09T03:48:26;4.38;;;3.30;;
37885;SDS011;23726;52.520;13.434;2022-09-09T03:50:53;4.68;;;3.80;;
37885;SDS011;23726;52.520;13.434;2022-09-09T03:53:20;3.50;;;3.20;;
37885;SDS011;23726;52.520;13.434;2022-09-09T03:55:48;3.47;;;3.17;;
37885;SDS011;23726;52.520;13.434;2022-09-09T03:58:19;3.78;;;3.47;;
37885;SDS011;23726;52.520;13.434;2022-09-09T04:00:56;3.55;;;3.25;;
37885;SDS011;23726;52.520;13.434;2022-09-09T04:03:24;4.05;;;3.42;;
37885;SDS011;23726;52.520;13.434;2022-09-09T04:05:53;3.45;;;3.15;;
37885;SDS011;23726;52.520;13.434;2022-09-09T04:08:21;4.68;;;3.13;;
37885;SDS011;23726;52.520;13.434;2022-09-09T04:10:49;3.72;;;3.42;;
37885;SDS011;23726;52.520;13.434;2022-09-09T04:13:16;4.03;;;3.30;;
37885;SDS011;23726;52.520;13.434;2022-09-09T04:15:55;3.95;;;3.55;;
37885;SDS011;23726;52.520;13.434;2022-09-09T04:18:25;3.50;;;3.20;;
37885;SDS011;23726;52.520;13.434;2022-09-09T04:20:51;3.70;;;3.40;;
37885;SDS011;23726;52.520;13.434;2022-09-09T04:23:18;3.25;;;3.05;;
37885;SDS011;23726;52.520;13.434;2022-09-09T04:25:46;4.10;;;3.22;;
37885;SDS011;23726;52.520;13.434;2022-09-09T04:28:14;3.25;;;2.95;;
37885;SDS011;23726;52.520;13.434;2022-09-09T04:30:41;3.33;;;3.00;;
37885;SDS011;23726;52.520;13.434;2022-09-09T04:33:09;4.07;;;3.40;;
37885;SDS011;23726;52.520;13.434;2022-09-09T04:35:36;3.85;;;3.50;;
37885;SDS011;23726;52.520;13.434;2022-09-09T04:38:03;3.70;;;2.88;;
37885;SDS011;23726;52.520;13.434;2022-09-09T04:40:29;3.30;;;3.00;;
37885;SDS011;23726;52.520;13.434;2022-09-09T04:42:57;8.23;;;3.30;;
37885;SDS011;23726;52.520;13.434;2022-09-09T04:45:23;3.13;;;2.85;;
37885;SDS011;23726;52.520;13.434;2022-09-09T04:47:49;3.47;;;3.17;;
37885;SDS011;23726;52.520;13.434;2022-09-09T04:50:14;3.63;;;3.33;;
37885;SDS011;23726;52.520;13.434;2022-09-09T04:52:41;3.53;;;3.22;;
37885;SDS011;23726;52.520;13.434;2022-09-09T04:55:08;3.95;;;3.50;;
37885;SDS011;23726;52.520;13.434;2022-09-09T04:57:34;3.17;;;2.88;;
37885;SDS011;23726;52.520;13.434;2022-09-09T05:00:01;3.47;;;3.17;;
37885;SDS011;23726;52.520;13.434;2022-09-09T05:02:28;3.50;;;3.20;;
37885;SDS011;23726;52.520;13.434;2022-09-09T05:04:55;3.58;;;3.28;;
37885;SDS011;23726;52.520;13.434;2022-09-09T05:07:21;3.15;;;2.85;;
37885;SDS011;23726;52.520;13.434;2022-09-09T05:09:48;3.90;;;3.30;;
37885;SDS011;23726;52.520;13.434;2022-09-09T05:12:15;3.20;;;3.00;;
37885;SDS011;23726;52.520;13.434;2022-09-09T05:14:42;4.45;;;3.40;;
37885;SDS011;23726;52.520;13.434;2022-09-09T05:17:08;5.47;;;3.30;;
37885;SDS011;23726;52.520;13.434;2022-09-09T05:19:33;3.22;;;2.92;;
37885;SDS011;23726;52.520;13.434;2022-09-09T05:22:00;3.42;;;3.10;;
37885;SDS011;23726;52.520;13.434;2022-09-09T05:24:26;3.22;;;2.90;;
37885;SDS011;23726;52.520;13.434;2022-09-09T05:26:52;3.35;;;3.05;;
37885;SDS011;23726;52.520;13.434;2022-09-09T05:29:17;3.72;;;3.13;;
37885;SDS011;23726;52.520;13.434;2022-09-09T05:31:46;3.63;;;3.30;;
37885;SDS011;23726;52.520;13.434;2022-09-09T05:34:12;3.70;;;3.30;;
37885;SDS011;23726;52.520;13.434;2022-09-09T05:36:37;4.50;;;3.10;;
37885;SDS011;23726;52.520;13.434;2022-09-09T05:39:05;4.53;;;3.33;;
37885;SDS011;23726;52.520;13.434;2022-09-09T05:41:30;3.58;;;3.22;;
37885;SDS011;23726;52.520;13.434;2022-09-09T05:43:57;3.50;;;3.20;;
37885;SDS011;23726;52.520;13.434;2022-09-09T05:46:26;3.47;;;3.17;;
37885;SDS011;23726;52.520;13.434;2022-09-09T05:48:52;3.40;;;2.88;;
37885;SDS011;23726;52.520;13.434;2022-09-09T05:51:19;3.00;;;2.80;;
37885;SDS011;23726;52.520;13.434;2022-09-09T05:56:17;3.50;;;3.20;;
37885;SDS011;23726;52.520;13.434;2022-09-09T05:58:44;3.08;;;2.75;;
37885;SDS011;23726;52.520;13.434;2022-09-09T06:01:28;3.45;;;3.15;;
37885;SDS011;23726;52.520;13.434;2022-09-09T06:03:57;3.55;;;3.10;;
37885;SDS011;23726;52.520;13.434;2022-09-09T06:06:23;4.65;;;3.00;;
37885;SDS011;23726;52.520;13.434;2022-09-09T06:08:51;3.50;;;3.20;;
37885;SDS011;23726;52.520;13.434;2022-09-09T06:11:28;4.32;;;3.10;;
37885;SDS011;23726;52.520;13.434;2022-09-09T06:13:58;3.15;;;2.83;;
37885;SDS011;23726;52.520;13.434;2022-09-09T06:16:24;3.40;;;3.10;;
37885;SDS011;23726;52.520;13.434;2022-09-09T06:18:51;3.45;;;3.15;;
37885;SDS011;23726;52.520;13.434;2022-09-09T06:21:28;4.15;;;3.05;;
37885;SDS011;23726;52.520;13.434;2022-09-09T06:23:58;4.32;;;2.92;;
37885;SDS011;23726;52.520;13.434;2022-09-09T06:26:28;3.58;;;3.28;;
37885;SDS011;23726;52.520;13.434;2022-09-09T06:28:57;4.18;;;3.40;;
37885;SDS011;23726;52.520;13.434;2022-09-09T06:31:26;3.33;;;3.03;;
37885;SDS011;23726;52.520;13.434;2022-09-09T06:33:55;3.28;;;2.80;;
37885;SDS011;23726;52.520;13.434;2022-09-09T06:36:25;3.40;;;3.10;;
37885;SDS011;23726;52.520;13.434;2022-09-09T06:38:59;3.25;;;2.90;;
37885;SDS011;23726;52.520;13.434;2022-09-09T06:41:26;3.80;;;2.95;;
37885;SDS011;23726;52.520;13.434;2022-09-09T06:43:53;3.63;;;3.30;;
37885;SDS011;23726;52.520;13.434;2022-09-09T06:46:21;3.85;;;2.78;;
37885;SDS011;23726;52.520;13.434;2022-09-09T06:48:53;3.72;;;2.97;;
37885;SDS011;23726;52.520;13.434;2022-09-09T06:51:24;3.20;;;2.90;;
37885;SDS011;23726;52.520;13.434;2022-09-09T06:54:11;3.60;;;2.95;;
37885;SDS011;23726;52.520;13.434;2022-09-09T06:56:39;5.65;;;3.42;;
37885;SDS011;23726;52.520;13.434;2022-09-09T06:59:07;3.38;;;2.75;;
37885;SDS011;23726;52.520;13.434;2022-09-09T07:01:35;3.75;;;3.20;;
37885;SDS011;23726;52.520;13.434;2022-09-09T07:04:06;3.10;;;2.80;;
37885;SDS011;23726;52.520;13.434;2022-09-09T07:06:34;5.32;;;3.08;;
37885;SDS011;23726;52.520;13.434;2022-09-09T07:09:02;3.78;;;3.00;;
37885;SDS011;23726;52.520;13.434;2022-09-09T07:11:33;3.55;;;3.10;;
37885;SDS011;23726;52.520;13.434;2022-09-09T07:14:03;3.13;;;2.83;;
37885;SDS011;23726;52.520;13.434;2022-09-09T07:16:29;5.95;;;3.28;;
37885;SDS011;23726;52.520;13.434;2022-09-09T07:18:56;3.25;;;2.95;;
37885;SDS011;23726;52.520;13.434;2022-09-09T07:21:22;3.60;;;3.00;;
37885;SDS011;23726;52.520;13.434;2022-09-09T07:23:50;3.28;;;2.97;;
37885;SDS011;23726;52.520;13.434;2022-09-09T07:26:18;6.05;;;2.83;;
37885;SDS011;23726;52.520;13.434;2022-09-09T07:28:46;4.90;;;3.00;;
37885;SDS011;23726;52.520;13.434;2022-09-09T07:31:15;3.50;;;3.20;;
37885;SDS011;23726;52.520;13.434;2022-09-09T07:33:46;4.32;;;3.00;;
37885;SDS011;23726;52.520;13.434;2022-09-09T07:36:16;4.55;;;2.80;;
37885;SDS011;23726;52.520;13.434;2022-09-09T07:38:49;4.38;;;3.00;;
37885;SDS011;23726;52.520;13.434;2022-09-09T07:41:19;3.72;;;3.13;;
37885;SDS011;23726;52.520;13.434;2022-09-09T07:43:47;3.35;;;2.90;;
37885;SDS011;23726;52.520;13.434;2022-09-09T07:46:15;3.53;;;3.20;;
37885;SDS011;23726;52.520;13.434;2022-09-09T07:48:53;4.32;;;2.90;;
37885;SDS011;23726;52.520;13.434;2022-09-09T07:51:24;3.78;;;3.08;;
37885;SDS011;23726;52.520;13.434;2022-09-09T07:58:51;4.25;;;2.70;;
37885;SDS011;23726;52.520;13.434;2022-09-09T08:06:24;3.35;;;2.75;;
37885;SDS011;23726;52.520;13.434;2022-09-09T08:08:51;3.60;;;2.85;;
37885;SDS011;23726;52.520;13.434;2022-09-09T08:11:17;3.28;;;2.63;;
37885;SDS011;23726;52.520;13.434;2022-09-09T08:13:43;2.80;;;2.60;;
37885;SDS011;23726;52.520;13.434;2022-09-09T08:16:11;3.28;;;2.97;;
37885;SDS011;23726;52.520;13.434;2022-09-09T08:18:39;4.63;;;2.72;;
37885;SDS011;23726;52.520;13.434;2022-09-09T08:21:09;3.25;;;2.53;;
37885;SDS011;23726;52.520;13.434;2022-09-09T08:23:39;3.70;;;2.42;;
37885;SDS011;23726;52.520;13.434;2022-09-09T08:26:12;3.65;;;2.50;;
37885;SDS011;23726;52.520;13.434;2022-09-09T08:28:40;2.85;;;2.65;;
37885;SDS011;23726;52.520;13.434;2022-09-09T08:33:39;3.03;;;2.72;;
37885;SDS011;23726;52.520;13.434;2022-09-09T08:36:08;3.08;;;2.53;;
37885;SDS011;23726;52.520;13.434;2022-09-09T08:38:37;3.55;;;2.55;;
37885;SDS011;23726;52.520;13.434;2022-09-09T08:43:47;4.50;;;2.30;;
37885;SDS011;23726;52.520;13.434;2022-09-09T08:46:26;4.30;;;2.35;;
37885;SDS011;23726;52.520;13.434;2022-09-09T08:52:24;3.45;;;2.80;;
37885;SDS011;23726;52.520;13.434;2022-09-09T08:55:03;4.00;;;2.70;;
37885;SDS011;23726;52.520;13.434;2022-09-09T08:58:04;6.38;;;3.25;;
37885;SDS011;23726;52.520;13.434;2022-09-09T09:00:40;5.78;;;3.08;;
37885;SDS011;23726;52.520;13.434;2022-09-09T09:06:09;4.57;;;2.90;;
37885;SDS011;23726;52.520;13.434;2022-09-09T09:11:18;3.58;;;2.90;;
37885;SDS011;23726;52.520;13.434;2022-09-09T09:13:45;3.05;;;2.40;;
37885;SDS011;23726;52.520;13.434;2022-09-09T09:16:22;3.58;;;2.70;;
37885;SDS011;23726;52.520;13.434;2022-09-09T09:18:58;4.68;;;2.80;;
37885;SDS011;23726;52.520;13.434;2022-09-09T09:24:05;4.83;;;2.97;;
37885;SDS011;23726;52.520;13.434;2022-09-09T09:26:42;3.05;;;2.75;;
37885;SDS011;23726;52.520;13.434;2022-09-09T09:29:10;2.67;;;2.47;;
37885;SDS011;23726;52.520;13.434;2022-09-09T09:31:45;3.97;;;2.70;;
37885;SDS011;23726;52.520;13.434;2022-09-09T09:34:16;3.60;;;2.90;;
37885;SDS011;23726;52.520;13.434;2022-09-09T09:36:53;3.80;;;2.85;;
37885;SDS011;23726;52.520;13.434;2022-09-09T09:41:48;4.05;;;2.58;;
37885;SDS011;23726;52.520;13.434;2022-09-09T09:47:05;4.32;;;2.80;;
37885;SDS011;23726;52.520;13.434;2022-09-09T09:49:33;4.40;;;2.72;;
37885;SDS011;23726;52.520;13.434;2022-09-09T09:52:02;6.70;;;3.10;;
37885;SDS011;23726;52.520;13.434;2022-09-09T09:54:32;3.22;;;2.65;;
37885;SDS011;23726;52.520;13.434;2022-09-09T09:57:09;3.72;;;2.83;;
37885;SDS011;23726;52.520;13.434;2022-09-09T09:59:40;4.15;;;3.13;;
37885;SDS011;23726;52.520;13.434;2022-09-09T10:04:59;5.32;;;3.22;;
37885;SDS011;23726;52.520;13.434;2022-09-09T10:07:29;3.50;;;2.90;;
37885;SDS011;23726;52.520;13.434;2022-09-09T10:09:55;3.67;;;2.85;;
37885;SDS011;23726;52.520;13.434;2022-09-09T10:20:35;3.88;;;2.83;;
37885;SDS011;23726;52.520;13.434;2022-09-09T10:28:41;3.88;;;2.97;;
37885;SDS011;23726;52.520;13.434;2022-09-09T10:31:40;3.05;;;2.72;;
37885;SDS011;23726;52.520;13.434;2022-09-09T10:34:35;3.85;;;2.80;;
37885;SDS011;23726;52.520;13.434;2022-09-09T10:37:24;3.30;;;3.00;;
37885;SDS011;23726;52.520;13.434;2022-09-09T10:42:55;3.90;;;2.90;;
37885;SDS011;23726;52.520;13.434;2022-09-09T10:54:19;3.08;;;2.80;;
37885;SDS011;23726;52.520;13.434;2022-09-09T10:56:56;4.53;;;2.80;;
37885;SDS011;23726;52.520;13.434;2022-09-09T10:59:29;3.88;;;2.53;;
37885;SDS011;23726;52.520;13.434;2022-09-09T11:02:05;4.05;;;2.70;;
37885;SDS011;23726;52.520;13.434;2022-09-09T11:10:11;5.57;;;2.92;;
37885;SDS011;23726;52.520;13.434;2022-09-09T11:12:50;3.60;;;2.90;;
37885;SDS011;23726;52.520;13.434;2022-09-09T11:18:10;3.88;;;3.00;;
37885;SDS011;23726;52.520;13.434;2022-09-09T11:20:43;2.70;;;2.45;;
37885;SDS011;23726;52.520;13.434;2022-09-09T11:23:13;5.30;;;2.67;;
37885;SDS011;23726;52.520;13.434;2022-09-09T11:25:49;4.32;;;3.00;;
37885;SDS011;23726;52.520;13.434;2022-09-09T11:31:22;3.33;;;2.50;;
37885;SDS011;23726;52.520;13.434;2022-09-09T11:44:40;5.53;;;4.95;;
37885;SDS011;23726;52.520;13.434;2022-09-09T11:47:19;7.75;;;4.82;;
37885;SDS011;23726;52.520;13.434;2022-09-09T11:49:54;5.85;;;5.25;;
37885;SDS011;23726;52.520;13.434;2022-09-09T11:52:36;6.88;;;5.18;;
37885;SDS011;23726;52.520;13.434;2022-09-09T11:58:02;6.70;;;5.68;;
37885;SDS011;23726;52.520;13.434;2022-09-09T12:00:35;7.78;;;5.60;;
37885;SDS011;23726;52.520;13.434;2022-09-09T12:03:02;10.35;;;5.35;;
37885;SDS011;23726;52.520;13.434;2022-09-09T12:05:39;7.88;;;5.35;;
37885;SDS011;23726;52.520;13.434;2022-09-09T12:08:15;7.95;;;5.60;;
37885;SDS011;23726;52.520;13.434;2022-09-09T12:10:53;8.18;;;5.50;;
37885;SDS011;23726;52.520;13.434;2022-09-09T12:13:21;7.20;;;5.20;;
37885;SDS011;23726;52.520;13.434;2022-09-09T12:15:54;8.10;;;5.57;;
37885;SDS011;23726;52.520;13.434;2022-09-09T12:18:25;7.35;;;5.15;;
37885;SDS011;23726;52.520;13.434;2022-09-09T12:21:11;6.72;;;5.38;;
37885;SDS011;23726;52.520;13.434;2022-09-09T12:24:02;8.15;;;5.65;;
37885;SDS011;23726;52.520;13.434;2022-09-09T12:26:47;8.45;;;5.40;;
37885;SDS011;23726;52.520;13.434;2022-09-09T12:32:24;6.22;;;5.13;;
37885;SDS011;23726;52.520;13.434;2022-09-09T12:35:02;8.10;;;5.50;;
37885;SDS011;23726;52.520;13.434;2022-09-09T12:37:37;7.88;;;5.15;;
37885;SDS011;23726;52.520;13.434;2022-09-09T12:40:40;7.88;;;5.43;;
37885;SDS011;23726;52.520;13.434;2022-09-09T12:43:19;5.90;;;5.20;;
37885;SDS011;23726;52.520;13.434;2022-09-09T12:46:08;6.05;;;4.82;;
37885;SDS011;23726;52.520;13.434;2022-09-09T12:48:39;5.65;;;4.80;;
37885;SDS011;23726;52.520;13.434;2022-09-09T12:51:22;6.50;;;5.50;;
37885;SDS011;23726;52.520;13.434;2022-09-09T12:56:20;5.45;;;4.70;;
37885;SDS011;23726;52.520;13.434;2022-09-09T12:58:49;6.97;;;4.72;;
37885;SDS011;23726;52.520;13.434;2022-09-09T13:01:26;6.78;;;4.68;;
37885;SDS011;23726;52.520;13.434;2022-09-09T13:03:55;5.65;;;4.57;;
37885;SDS011;23726;52.520;13.434;2022-09-09T13:06:25;6.32;;;4.93;;
37885;SDS011;23726;52.520;13.434;2022-09-09T13:08:53;6.30;;;4.85;;
37885;SDS011;23726;52.520;13.434;2022-09-09T13:11:21;5.07;;;4.50;;
37885;SDS011;23726;52.520;13.434;2022-09-09T13:14:04;5.97;;;4.28;;
37885;SDS011;23726;52.520;13.434;2022-09-09T13:16:33;4.95;;;4.15;;
37885;SDS011;23726;52.520;13.434;2022-09-09T13:19:01;7.25;;;4.53;;
37885;SDS011;23726;52.520;13.434;2022-09-09T13:21:39;5.80;;;4.30;;
37885;SDS011;23726;52.520;13.434;2022-09-09T13:24:05;5.05;;;3.72;;
37885;SDS011;23726;52.520;13.434;2022-09-09T13:26:54;4.78;;;4.28;;
37885;SDS011;23726;52.520;13.434;2022-09-09T13:29:30;5.93;;;4.20;;
37885;SDS011;23726;52.520;13.434;2022-09-09T13:32:03;5.07;;;4.20;;
37885;SDS011;23726;52.520;13.434;2022-09-09T13:34:33;4.82;;;4.40;;
37885;SDS011;23726;52.520;13.434;2022-09-09T13:37:05;5.82;;;4.18;;
37885;SDS011;23726;52.520;13.434;2022-09-09T13:39:35;6.85;;;4.20;;
37885;SDS011;23726;52.520;13.434;2022-09-09T13:42:02;4.50;;;3.80;;
37885;SDS011;23726;52.520;13.434;2022-09-09T13:44:30;5.80;;;3.97;;
37885;SDS011;23726;52.520;13.434;2022-09-09T13:49:31;5.68;;;3.88;;
37885;SDS011;23726;52.520;13.434;2022-09-09T13:52:11;5.03;;;4.05;;
37885;SDS011;23726;52.520;13.434;2022-09-09T13:54:38;4.20;;;3.60;;
37885;SDS011;23726;52.520;13.434;2022-09-09T13:57:05;5.18;;;3.92;;
37885;SDS011;23726;52.520;13.434;2022-09-09T13:59:39;8.55;;;3.83;;
37885;SDS011;23726;52.520;13.434;2022-09-09T14:02:07;6.57;;;4.13;;
37885;SDS011;23726;52.520;13.434;2022-09-09T14:04:33;4.30;;;3.70;;
37885;SDS011;23726;52.520;13.434;2022-09-09T14:07:00;5.00;;;3.38;;
37885;SDS011;23726;52.520;13.434;2022-09-09T14:09:27;4.47;;;3.80;;
37885;SDS011;23726;52.520;13.434;2022-09-09T14:11:52;4.65;;;3.55;;
37885;SDS011;23726;52.520;13.434;2022-09-09T14:14:22;5.13;;;3.70;;
37885;SDS011;23726;52.520;13.434;2022-09-09T14:16:50;4.05;;;3.33;;
37885;SDS011;23726;52.520;13.434;2022-09-09T14:19:15;5.60;;;3.60;;
37885;SDS011;23726;52.520;13.434;2022-09-09T14:21:41;7.78;;;3.78;;
37885;SDS011;23726;52.520;13.434;2022-09-09T14:24:07;5.03;;;3.60;;
37885;SDS011;23726;52.520;13.434;2022-09-09T14:26:33;4.88;;;3.35;;
37885;SDS011;23726;52.520;13.434;2022-09-09T14:28:58;4.57;;;3.38;;
37885;SDS011;23726;52.520;13.434;2022-09-09T14:31:26;4.07;;;3.40;;
37885;SDS011;23726;52.520;13.434;2022-09-09T14:33:51;3.55;;;3.20;;
37885;SDS011;23726;52.520;13.434;2022-09-09T14:36:17;5.75;;;3.53;;
37885;SDS011;23726;52.520;13.434;2022-09-09T14:38:45;5.95;;;3.60;;
37885;SDS011;23726;52.520;13.434;2022-09-09T14:41:13;3.35;;;3.05;;
37885;SDS011;23726;52.520;13.434;2022-09-09T14:43:42;3.35;;;3.05;;
37885;SDS011;23726;52.520;13.434;2022-09-09T14:46:10;3.83;;;3.33;;
37885;SDS011;23726;52.520;13.434;2022-09-09T14:48:37;4.40;;;3.45;;
37885;SDS011;23726;52.520;13.434;2022-09-09T14:51:08;4.38;;;3.28;;
37885;SDS011;23726;52.520;13.434;2022-09-09T14:53:40;6.28;;;2.97;;
37885;SDS011;23726;52.520;13.434;2022-09-09T14:58:42;6.53;;;3.60;;
37885;SDS011;23726;52.520;13.434;2022-09-09T15:01:12;3.30;;;3.00;;
37885;SDS011;23726;52.520;13.434;2022-09-09T15:03:39;4.10;;;3.35;;
37885;SDS011;23726;52.520;13.434;2022-09-09T15:06:07;4.25;;;3.05;;
37885;SDS011;23726;52.520;13.434;2022-09-09T15:08:37;3.42;;;3.13;;
37885;SDS011;23726;52.520;13.434;2022-09-09T15:11:07;3.20;;;2.90;;
37885;SDS011;23726;52.520;13.434;2022-09-09T15:13:33;4.25;;;3.03;;
37885;SDS011;23726;52.520;13.434;2022-09-09T15:16:17;4.32;;;3.00;;
37885;SDS011;23726;52.520;13.434;2022-09-09T15:18:44;3.55;;;2.97;;
37885;SDS011;23726;52.520;13.434;2022-09-09T15:21:15;4.45;;;3.30;;
37885;SDS011;23726;52.520;13.434;2022-09-09T15:23:42;3.35;;;2.92;;
37885;SDS011;23726;52.520;13.434;2022-09-09T15:26:09;4.10;;;3.00;;
37885;SDS011;23726;52.520;13.434;2022-09-09T15:28:36;5.43;;;3.20;;
37885;SDS011;23726;52.520;13.434;2022-09-09T15:31:05;3.63;;;3.03;;
37885;SDS011;23726;52.520;13.434;2022-09-09T15:33:36;3.83;;;3.00;;
37885;SDS011;23726;52.520;13.434;2022-09-09T15:36:15;4.78;;;2.90;;
37885;SDS011;23726;52.520;13.434;2022-09-09T15:38:49;3.60;;;2.92;;
37885;SDS011;23726;52.520;13.434;2022-09-09T15:41:17;3.60;;;2.95;;
37885;SDS011;23726;52.520;13.434;2022-09-09T15:43:45;3.10;;;2.67;;
37885;SDS011;23726;52.520;13.434;2022-09-09T15:46:31;6.90;;;2.88;;
37885;SDS011;23726;52.520;13.434;2022-09-09T15:49:06;3.10;;;2.80;;
37885;SDS011;23726;52.520;13.434;2022-09-09T15:51:56;3.13;;;2.67;;
37885;SDS011;23726;52.520;13.434;2022-09-09T15:54:23;3.55;;;2.70;;
37885;SDS011;23726;52.520;13.434;2022-09-09T15:56:57;4.60;;;2.85;;
37885;SDS011;23726;52.520;13.434;2022-09-09T15:59:26;4.13;;;2.90;;
37885;SDS011;23726;52.520;13.434;2022-09-09T16:01:55;3.05;;;2.75;;
37885;SDS011;23726;52.520;13.434;2022-09-09T16:04:23;3.38;;;2.90;;
37885;SDS011;23726;52.520;13.434;2022-09-09T16:06:56;2.90;;;2.60;;
37885;SDS011;23726;52.520;13.434;2022-09-09T16:09:25;3.88;;;2.60;;
37885;SDS011;23726;52.520;13.434;2022-09-09T16:11:52;2.78;;;2.47;;
37885;SDS011;23726;52.520;13.434;2022-09-09T16:14:18;3.28;;;2.58;;
37885;SDS011;23726;52.520;13.434;2022-09-09T16:16:46;3.28;;;2.50;;
37885;SDS011;23726;52.520;13.434;2022-09-09T16:19:13;3.92;;;2.83;;
37885;SDS011;23726;52.520;13.434;2022-09-09T16:21:40;2.92;;;2.63;;
37885;SDS011;23726;52.520;13.434;2022-09-09T16:24:12;2.80;;;2.60;;
37885;SDS011;23726;52.520;13.434;2022-09-09T16:26:45;2.72;;;2.53;;
37885;SDS011;23726;52.520;13.434;2022-09-09T16:29:18;3.28;;;2.97;;
37885;SDS011;23726;52.520;13.434;2022-09-09T16:31:45;2.72;;;2.53;;
37885;SDS011;23726;52.520;13.434;2022-09-09T16:34:12;3.83;;;2.72;;
37885;SDS011;23726;52.520;13.434;2022-09-09T16:36:39;2.78;;;2.40;;
37885;SDS011;23726;52.520;13.434;2022-09-09T16:39:06;2.80;;;2.50;;
37885;SDS011;23726;52.520;13.434;2022-09-09T16:41:37;2.72;;;2.53;;
37885;SDS011;23726;52.520;13.434;2022-09-09T16:44:03;4.35;;;2.78;;
37885;SDS011;23726;52.520;13.434;2022-09-09T16:46:31;2.85;;;2.60;;
37885;SDS011;23726;52.520;13.434;2022-09-09T16:48:59;2.80;;;2.42;;
37885;SDS011;23726;52.520;13.434;2022-09-09T16:51:30;4.22;;;2.60;;
37885;SDS011;23726;52.520;13.434;2022-09-09T16:54:00;5.85;;;3.20;;
37885;SDS011;23726;52.520;13.434;2022-09-09T16:56:28;2.80;;;2.60;;
37885;SDS011;23726;52.520;13.434;2022-09-09T16:58:56;3.75;;;2.38;;
37885;SDS011;23726;52.520;13.434;2022-09-09T17:01:23;2.63;;;2.42;;
37885;SDS011;23726;52.520;13.434;2022-09-09T17:03:54;4.03;;;2.70;;
37885;SDS011;23726;52.520;13.434;2022-09-09T17:06:20;4.43;;;2.17;;
37885;SDS011;23726;52.520;13.434;2022-09-09T17:08:46;3.10;;;2.42;;
37885;SDS011;23726;52.520;13.434;2022-09-09T17:11:14;3.03;;;2.40;;
37885;SDS011;23726;52.520;13.434;2022-09-09T17:13:44;2.78;;;2.50;;
37885;SDS011;23726;52.520;13.434;2022-09-09T17:16:12;2.92;;;2.58;;
37885;SDS011;23726;52.520;13.434;2022-09-09T17:18:47;2.88;;;2.50;;
37885;SDS011;23726;52.520;13.434;2022-09-09T17:21:16;3.55;;;2.50;;
37885;SDS011;23726;52.520;13.434;2022-09-09T17:23:45;3.78;;;2.53;;
37885;SDS011;23726;52.520;13.434;2022-09-09T17:26:14;3.28;;;2.83;;
37885;SDS011;23726;52.520;13.434;2022-09-09T17:28:42;2.97;;;2.60;;
37885;SDS011;23726;52.520;13.434;2022-09-09T17:31:09;2.88;;;2.63;;